Welcome to the Virtual
Houston Air Route Traffic Control Center

Login

 
 

Forgot your password?

Controllers Online
Callsign Controller
Loading...
Updated --
Airport Information
ICAO Rules Wind Baro
Loading...
Updated --
Full Weather Information
Top Controllers - May '17
Controller Online
En-Route / Oceanic
1 Ayler Cruz (C1) 15:25
2 Brandon Barrett (I1) 12:42
3 Cole Connelly (I1) 04:04
4 Clay Brock (C1) 03:38
5 Alex Lehman (C1) 02:39
Terminal RADAR
1 Reuben Prevost (I1) 04:34
2 Jason Diket (C1) 04:29
3 Matthew Kosmoski (C1) 03:40
4 Jonathan Voss (C3) 03:40
5 Jerry Swalling (C1) 03:18
C/G/L Control
1 Ryan Barnes (S1) 31:10
2 Alan Johnston (S1) 14:49
3 Jake Malizia (S1) 04:18
4 Sebastian Knoop-Troullier (S2) 03:01
5 Raymond McCaskey (S3) 03:01
Full Controller Statistics

VATSIM
VATUSA

Weather


KAUSKAUS 230653Z 14004KT 10SM FEW150 18/18 A2986 RMK AO2 PRESFR SLP105 T01830178
KBTRKBTR 230653Z AUTO 17005KT 5SM -RA BR OVC010 22/21 A2979 RMK AO2 RAB29 CIG 007V012 SLP086 P0006 T02220211 $
KCRPKCRP 230651Z 04008KT 10SM FEW009 FEW019 BKN180 OVC250 24/23 A2985 RMK AO2 SLP106 T02390228
KGPTKGPT 230653Z AUTO 18014G21KT 3SM RA BR BKN025 BKN037 OVC046 23/22 A2981 RMK AO2 RAE22B46 SLP093 P0004 T02330217
KHOUKHOU 230653Z 33007KT 10SM OVC010 20/17 A2987 RMK AO2 SLP118 T02000172 $
KIAHKIAH 230653Z 02006KT 10SM OVC015 20/17 A2988 RMK AO2 SLP119 T02000172
KLCHKLCH 230653Z 32004KT 8SM OVC006 22/21 A2981 RMK AO2 CIG 003V009 SLP101 T02170211 $
KMOBKMOB 230656Z AUTO 12006KT 10SM -RA BKN011 BKN070 BKN100 22/21 A2986 RMK AO2 SLP107 P0002 T02220211
KMSYKMSY 230653Z 18009G19KT 10SM FEW024 SCT042 OVC050 23/22 A2981 RMK AO2 SLP097 T02330217
KSATKSAT 230651Z 01004KT 10SM FEW022 BKN055 BKN250 21/17 A2991 RMK AO2 SLP111 T02060172